Time;durP1;ratioP1;P1;durP2;ratioP2;P2;SDS_P1;SDS_P2;PMS_P1;PMS_P2;Temp;Humidity;BMP_temperature;BMP_pressure;BME280_temperature;BME280_humidity;BME280_pressure;Samples;Min_cycle;Max_cycle;Signal;HPM_P1;HPM_P2
2021/03/12 00:01:21;;;;;;;7.13;2.90;;;;;;;4.94;100.00;99034.13;5064155;28;20439;-72
2021/03/12 00:03:47;;;;;;;4.97;2.67;;;;;;;4.88;100.00;99036.91;5047299;28;20044;-77
2021/03/12 00:06:13;;;;;;;5.70;2.83;;;;;;;4.78;100.00;99049.31;5076998;28;20066;-76
2021/03/12 00:08:44;;;;;;;6.57;3.10;;;;;;;4.72;100.00;99046.84;5046184;28;20504;-73
2021/03/12 00:11:10;;;;;;;4.03;2.50;;;;;;;4.69;100.00;99046.91;5063984;28;20048;-73
2021/03/12 00:13:37;;;;;;;5.13;2.90;;;;;;;4.63;100.00;99047.06;5045557;28;20033;-72
2021/03/12 00:16:04;;;;;;;7.27;3.10;;;;;;;4.62;100.00;99058.41;5049196;28;20056;-77
2021/03/12 00:18:43;;;;;;;6.40;3.73;;;;;;;4.56;100.00;99055.09;5066548;28;20493;-75
2021/03/12 00:21:11;;;;;;;8.80;2.97;;;;;;;4.54;100.00;99055.13;5041294;28;20044;-75
2021/03/12 00:23:41;;;;;;;9.50;3.30;;;;;;;4.51;100.00;99063.88;5049405;28;20032;-76
2021/03/12 00:26:08;;;;;;;7.77;3.33;;;;;;;4.53;100.00;99063.81;5075472;28;20506;-72
2021/03/12 00:28:34;;;;;;;7.07;3.33;;;;;;;4.48;100.00;99063.94;5045633;28;20420;-73
2021/03/12 00:31:01;;;;;;;6.33;2.90;;;;;;;4.42;100.00;99061.44;5063303;28;20051;-74
2021/03/12 00:33:28;;;;;;;7.50;3.37;;;;;;;4.35;100.00;99067.69;5061739;28;20528;-77
2021/03/12 00:35:55;;;;;;;6.80;3.17;;;;;;;4.31;100.00;99065.19;5065008;28;20040;-73
2021/03/12 00:38:21;;;;;;;6.63;2.93;;;;;;;4.30;100.00;99069.56;5049886;28;20047;-73
2021/03/12 00:40:56;;;;;;;8.53;3.50;;;;;;;4.31;100.00;99078.28;5061519;28;20082;-73
2021/03/12 00:43:23;;;;;;;7.23;3.17;;;;;;;4.33;100.00;99082.56;5079123;28;20033;-73
2021/03/12 00:45:52;;;;;;;8.30;3.27;;;;;;;4.33;100.00;99082.56;5044225;28;20045;-73
2021/03/12 00:48:18;;;;;;;7.30;3.50;;;;;;;4.35;100.00;99072.06;5053451;28;20101;-73
2021/03/12 00:50:45;;;;;;;8.73;4.43;;;;;;;4.33;100.00;99077.34;5055987;28;20040;-73
2021/03/12 00:53:12;;;;;;;8.50;3.30;;;;;;;4.29;100.00;99074.81;5066688;28;20086;-73
2021/03/12 00:55:38;;;;;;;5.27;2.70;;;;;;;4.36;100.00;99077.25;5064142;28;20040;-73
2021/03/12 00:58:05;;;;;;;4.57;3.00;;;;;;;4.32;100.00;99085.22;5043985;28;20097;-73
2021/03/12 01:00:33;;;;;;;4.80;2.80;;;;;;;4.27;100.00;99082.69;5062296;28;20093;-73
2021/03/12 01:02:59;;;;;;;4.23;2.80;;;;;;;4.23;100.00;99092.34;5080417;28;20072;-73
2021/03/12 01:05:26;;;;;;;5.07;2.77;;;;;;;4.24;100.00;99096.69;5068669;28;20036;-72
2021/03/12 01:07:53;;;;;;;7.80;3.07;;;;;;;4.26;100.00;99088.81;5067392;28;20043;-73
2021/03/12 01:10:20;;;;;;;7.50;2.73;;;;;;;4.19;100.00;99097.66;5066003;28;20033;-72
2021/03/12 01:12:47;;;;;;;4.40;2.50;;;;;;;4.14;100.00;99094.28;5121706;22;20033;-70
2021/03/12 01:15:16;;;;;;;6.07;3.27;;;;;;;4.13;100.00;99087.34;5064270;28;20048;-70
2021/03/12 01:17:43;;;;;;;5.70;3.13;;;;;;;4.10;100.00;99093.47;5043064;28;20093;-71
2021/03/12 01:20:22;;;;;;;4.83;2.80;;;;;;;4.17;100.00;99086.38;5044449;28;20048;-71
2021/03/12 01:22:49;;;;;;;6.10;2.63;;;;;;;4.23;100.00;99094.09;5048012;28;20032;-70
2021/03/12 01:25:18;;;;;;;6.43;3.30;;;;;;;4.22;100.00;99108.06;5044595;28;20041;-70
2021/03/12 01:27:45;;;;;;;5.60;3.00;;;;;;;4.21;100.00;99103.75;5026892;28;20040;-70
2021/03/12 01:30:16;;;;;;;4.93;2.47;;;;;;;4.26;100.00;99114.09;5046038;28;20421;-70
2021/03/12 01:32:42;;;;;;;5.10;3.83;;;;;;;4.29;100.00;99109.69;5060372;28;20037;-71
2021/03/12 01:35:09;;;;;;;5.93;2.80;;;;;;;4.30;100.00;99114.00;5026194;28;20152;-71
2021/03/12 01:37:36;;;;;;;5.87;2.80;;;;;;;4.29;100.00;99112.28;5031180;28;20504;-70
2021/03/12 01:40:05;;;;;;;6.77;2.90;;;;;;;4.29;100.00;99111.41;5046567;28;20370;-71
2021/03/12 01:42:52;;;;;;;7.80;3.10;;;;;;;4.24;100.00;99098.44;5053767;28;20128;-71
2021/03/12 01:45:23;;;;;;;7.47;2.77;;;;;;;4.23;100.00;99091.50;5025591;28;20045;-71
2021/03/12 01:47:50;;;;;;;6.43;2.70;;;;;;;4.12;100.00;99094.31;5046835;28;20032;-71
2021/03/12 01:50:18;;;;;;;5.40;2.57;;;;;;;4.07;100.00;99096.16;5048493;28;20082;-71
2021/03/12 01:52:44;;;;;;;5.70;2.47;;;;;;;4.08;100.00;99115.31;5046378;28;20402;-71
2021/03/12 01:55:17;;;;;;;6.13;2.30;;;;;;;4.00;100.00;99091.06;5027024;28;20049;-71
2021/03/12 01:57:44;;;;;;;3.47;2.00;;;;;;;3.92;100.00;99092.06;5049239;28;20664;-71
2021/03/12 02:00:11;;;;;;;4.03;1.67;;;;;;;3.95;100.00;99097.25;5055743;28;20401;-72
2021/03/12 02:02:39;;;;;;;6.30;1.70;;;;;;;3.90;100.00;99087.78;5048990;28;20093;-72
2021/03/12 02:05:07;;;;;;;2.93;1.70;;;;;;;3.85;100.00;99095.69;5030832;28;20079;-72
2021/03/12 02:07:36;;;;;;;2.97;1.80;;;;;;;3.86;100.00;99088.69;5021634;28;20041;-72
2021/03/12 02:10:05;;;;;;;6.60;1.67;;;;;;;3.77;100.00;99100.19;5055068;28;20063;-71
2021/03/12 02:12:56;;;;;;;5.43;2.50;;;;;;;3.78;100.00;99107.13;5025589;28;20051;-71
2021/03/12 02:15:33;;;;;;;4.20;1.83;;;;;;;3.75;100.00;99106.34;5046291;28;20032;-71
2021/03/12 02:18:31;;;;;;;4.57;1.83;;;;;;;3.73;100.00;99106.38;5047102;28;20098;-71
2021/03/12 02:21:12;;;;;;;3.83;2.03;;;;;;;3.69;100.00;99107.28;5028668;28;20045;-72
2021/03/12 02:23:53;;;;;;;7.00;2.17;;;;;;;3.71;100.00;99105.53;5045344;28;20035;-72
2021/03/12 02:26:37;;;;;;;2.53;1.70;;;;;;;3.71;100.00;99105.53;5030886;28;20170;-71
2021/03/12 02:29:05;;;;;;;4.43;1.95;;;;;;;3.73;100.00;99115.94;5042250;28;20704;-71
2021/03/12 02:31:35;;;;;;;2.77;1.63;;;;;;;3.68;100.00;99113.41;5027062;28;20043;-71
2021/03/12 02:34:13;;;;;;;2.93;1.83;;;;;;;3.56;100.00;99117.09;5049613;28;20125;-72
2021/03/12 02:36:42;;;;;;;3.97;1.80;;;;;;;3.50;100.00;99121.56;5018197;28;20100;-72
2021/03/12 02:39:12;;;;;;;3.77;2.33;;;;;;;3.48;100.00;99125.94;5030260;28;20497;-72
2021/03/12 02:41:38;;;;;;;4.10;2.47;;;;;;;3.37;100.00;99126.13;5041637;28;20037;-70
2021/03/12 02:44:07;;;;;;;4.53;2.40;;;;;;;3.29;100.00;99133.22;5042976;28;20044;-71
2021/03/12 02:46:34;;;;;;;4.87;2.10;;;;;;;3.26;100.00;99134.09;5062281;28;20029;-71
2021/03/12 02:49:00;;;;;;;4.67;2.57;;;;;;;3.23;100.00;99126.34;5044034;28;20044;-69
2021/03/12 02:51:26;;;;;;;3.40;1.73;;;;;;;3.15;100.00;99128.19;5047929;28;20049;-71
2021/03/12 02:53:52;;;;;;;7.00;3.07;;;;;;;3.20;100.00;99133.38;5028172;28;20037;-71
2021/03/12 02:56:20;;;;;;;4.40;2.67;;;;;;;3.17;100.00;99142.09;5043304;28;20044;-71
2021/03/12 02:58:47;;;;;;;6.67;3.10;;;;;;;3.16;100.00;99145.56;5028226;28;20453;-70
2021/03/12 03:01:13;;;;;;;5.53;2.83;;;;;;;3.16;100.00;99142.97;5037027;28;20106;-71
2021/03/12 03:03:40;;;;;;;3.90;3.20;;;;;;;3.21;100.00;99150.75;5023569;28;20036;-70
2021/03/12 03:06:07;;;;;;;14.33;3.67;;;;;;;3.26;100.00;99138.47;5041828;28;20045;-71
2021/03/12 03:08:35;;;;;;;6.93;4.10;;;;;;;3.18;100.00;99146.41;5031563;28;20036;-70
2021/03/12 03:11:04;;;;;;;7.03;3.60;;;;;;;3.22;100.00;99139.41;5047438;28;20041;-70
2021/03/12 03:13:36;;;;;;;7.30;3.40;;;;;;;3.18;100.00;99142.94;5059313;28;20090;-71
2021/03/12 03:16:05;;;;;;;5.70;3.43;;;;;;;3.15;100.00;99150.81;5028393;28;20109;-70
2021/03/12 03:18:34;;;;;;;7.43;3.30;;;;;;;3.18;100.00;99159.47;5046092;28;20499;-70
2021/03/12 03:21:01;;;;;;;6.40;3.53;;;;;;;3.12;100.00;99159.56;5027346;28;20135;-72
2021/03/12 03:23:27;;;;;;;7.37;2.90;;;;;;;3.14;100.00;99172.59;5016861;28;20033;-70
2021/03/12 03:25:54;;;;;;;6.50;3.17;;;;;;;3.15;100.00;99183.00;5038345;28;20037;-70
2021/03/12 03:28:21;;;;;;;8.50;3.40;;;;;;;3.12;100.00;99175.22;5010842;28;20040;-71
2021/03/12 03:30:47;;;;;;;9.30;4.10;;;;;;;3.16;100.00;99182.13;5037860;28;21892;-70
2021/03/12 03:33:13;;;;;;;5.43;3.30;;;;;;;3.20;100.00;99182.94;5043424;28;20078;-71
2021/03/12 03:35:40;;;;;;;3.87;2.43;;;;;;;3.20;100.00;99189.03;5048478;28;20045;-72
2021/03/12 03:38:06;;;;;;;5.87;2.93;;;;;;;3.25;100.00;99181.97;5058964;28;20056;-70
2021/03/12 03:40:32;;;;;;;4.57;3.27;;;;;;;3.26;100.00;99191.53;5064329;28;20410;-71
2021/03/12 03:43:01;;;;;;;7.50;2.80;;;;;;;3.27;100.00;99190.63;5054656;28;20036;-72
2021/03/12 03:45:29;;;;;;;6.00;3.30;;;;;;;3.29;100.00;99193.25;5046746;28;20566;-71
2021/03/12 03:47:56;;;;;;;5.53;2.90;;;;;;;3.34;100.00;99201.84;5043294;28;20439;-70
2021/03/12 03:50:24;;;;;;;4.13;2.47;;;;;;;3.32;100.00;99199.28;5046244;28;20053;-70
2021/03/12 03:52:51;;;;;;;5.73;2.60;;;;;;;3.30;100.00;99195.84;5030923;28;20041;-71
2021/03/12 03:55:25;;;;;;;8.33;3.50;;;;;;;3.22;100.00;99192.47;5064547;28;20037;-71
2021/03/12 03:57:52;;;;;;;4.47;2.70;;;;;;;3.22;100.00;99205.53;5058000;28;20028;-70
2021/03/12 04:00:19;;;;;;;4.53;2.20;;;;;;;3.22;100.00;99208.13;5059791;28;20049;-70
2021/03/12 04:02:46;;;;;;;5.57;2.43;;;;;;;3.13;100.00;99217.84;5040972;28;20041;-71
2021/03/12 04:05:14;;;;;;;5.57;3.43;;;;;;;3.01;100.00;99217.09;5047476;28;20486;-71
2021/03/12 04:07:40;;;;;;;5.97;2.87;;;;;;;3.05;100.00;99221.41;5047981;28;20049;-71
2021/03/12 04:10:08;;;;;;;7.63;3.83;;;;;;;3.12;100.00;99216.13;5046144;28;20041;-71
2021/03/12 04:12:34;;;;;;;4.97;3.07;;;;;;;3.06;100.00;99220.53;5031220;28;20044;-71
2021/03/12 04:15:00;;;;;;;5.00;2.60;;;;;;;2.99;100.00;99218.00;5048271;28;20040;-71
2021/03/12 04:17:27;;;;;;;6.00;2.87;;;;;;;2.97;100.00;99230.22;5036165;28;20056;-71
2021/03/12 04:19:54;;;;;;;9.43;2.90;;;;;;;2.92;100.00;99237.22;5044648;28;20555;-71
2021/03/12 04:22:20;;;;;;;6.77;2.97;;;;;;;3.00;100.00;99232.78;5037213;28;20109;-70
2021/03/12 04:24:47;;;;;;;5.03;2.57;;;;;;;2.93;100.00;99244.16;5034325;28;20082;-70
2021/03/12 04:27:14;;;;;;;6.63;2.10;;;;;;;2.94;100.00;99241.53;5050489;28;20169;-71
2021/03/12 04:29:40;;;;;;;7.07;2.90;;;;;;;2.93;100.00;99252.84;5046546;28;20040;-71
2021/03/12 04:32:06;;;;;;;4.27;2.60;;;;;;;2.97;100.00;99258.91;5032866;28;20095;-71
2021/03/12 04:34:33;;;;;;;4.47;2.10;;;;;;;2.99;100.00;99272.78;5044043;28;20033;-71
2021/03/12 04:36:59;;;;;;;3.93;2.23;;;;;;;3.07;100.00;99266.59;5043444;28;20437;-71
2021/03/12 04:39:26;;;;;;;4.63;2.00;;;;;;;3.09;100.00;99279.63;5051754;28;20067;-71
2021/03/12 04:41:52;;;;;;;7.73;2.30;;;;;;;3.14;100.00;99283.03;5035549;28;20055;-71
2021/03/12 04:44:20;;;;;;;6.63;2.37;;;;;;;3.13;100.00;99286.53;5035359;28;20209;-71
2021/03/12 04:46:46;;;;;;;3.47;2.17;;;;;;;3.18;100.00;99295.16;5034353;28;20490;-71
2021/03/12 04:49:12;;;;;;;4.10;2.17;;;;;;;3.21;100.00;99299.50;5050535;28;20050;-70
2021/03/12 04:51:39;;;;;;;3.77;1.80;;;;;;;3.23;100.00;99298.59;5041564;28;20395;-70
2021/03/12 04:54:13;;;;;;;3.40;2.10;;;;;;;3.27;100.00;99289.81;5052025;28;20066;-70
2021/03/12 04:56:39;;;;;;;3.33;1.98;;;;;;;3.27;100.00;99305.47;5052109;28;20040;-71
2021/03/12 04:59:05;;;;;;;5.80;3.13;;;;;;;3.30;100.00;99305.47;5051282;28;20067;-70
2021/03/12 05:01:34;;;;;;;4.23;1.93;;;;;;;3.30;100.00;99302.84;5018487;28;20447;-70
2021/03/12 05:04:05;;;;;;;3.83;1.93;;;;;;;3.34;100.00;99306.28;5034211;28;20433;-70
2021/03/12 05:06:32;;;;;;;4.53;2.10;;;;;;;3.31;100.00;99295.88;5050128;28;20083;-70
2021/03/12 05:08:59;;;;;;;3.97;2.00;;;;;;;3.32;100.00;99308.03;5051001;28;20647;-71
2021/03/12 05:11:27;;;;;;;3.00;1.90;;;;;;;3.29;100.00;99295.91;5052432;28;20040;-71
2021/03/12 05:13:53;;;;;;;4.50;2.00;;;;;;;3.34;100.00;99299.31;5050077;28;20041;-70
2021/03/12 05:16:20;;;;;;;9.97;1.97;;;;;;;3.33;100.00;99310.63;5050376;28;20436;-70
2021/03/12 05:18:46;;;;;;;5.83;1.83;;;;;;;3.39;100.00;99313.16;5052155;28;20041;-70
2021/03/12 05:21:13;;;;;;;3.63;1.67;;;;;;;3.42;100.00;99314.00;5034744;28;20056;-72
2021/03/12 05:23:40;;;;;;;6.47;2.47;;;;;;;3.37;100.00;99324.53;5047159;28;20055;-71
2021/03/12 05:26:06;;;;;;;4.07;2.27;;;;;;;3.39;100.00;99321.00;5025445;28;20093;-71
2021/03/12 05:28:33;;;;;;;4.87;2.13;;;;;;;3.42;100.00;99327.91;5048484;28;20044;-72
2021/03/12 05:30:59;;;;;;;3.57;1.97;;;;;;;3.39;100.00;99334.06;5034390;28;20610;-72
2021/03/12 05:33:25;;;;;;;5.70;1.93;;;;;;;3.45;100.00;99321.78;5049471;28;20071;-71
2021/03/12 05:35:51;;;;;;;3.33;1.73;;;;;;;3.44;100.00;99339.19;5041383;28;20064;-72
2021/03/12 05:38:17;;;;;;;3.93;1.80;;;;;;;3.47;100.00;99344.41;5050836;28;20379;-71
2021/03/12 05:40:43;;;;;;;6.40;2.87;;;;;;;3.48;100.00;99342.66;5030826;28;20041;-71
2021/03/12 05:43:10;;;;;;;6.33;2.03;;;;;;;3.50;100.00;99353.94;5061178;28;20041;-72
2021/03/12 05:45:51;;;;;;;4.30;1.77;;;;;;;3.49;100.00;99362.66;5035172;28;20029;-71
2021/03/12 05:48:18;;;;;;;4.57;2.03;;;;;;;3.48;100.00;99359.19;5022357;28;20069;-71
2021/03/12 05:50:44;;;;;;;5.60;2.50;;;;;;;3.47;100.00;99353.97;5027064;28;20045;-72
2021/03/12 05:53:11;;;;;;;4.43;2.07;;;;;;;3.59;100.00;99357.28;5059812;28;20033;-71
2021/03/12 05:55:37;;;;;;;3.60;1.87;;;;;;;3.60;100.00;99369.44;5032535;28;20334;-71
2021/03/12 05:58:04;;;;;;;4.03;2.40;;;;;;;3.64;100.00;99368.53;5033365;28;20054;-71
2021/03/12 06:00:30;;;;;;;5.17;2.50;;;;;;;3.68;100.00;99382.41;5064430;28;20039;-71
2021/03/12 06:02:56;;;;;;;9.07;3.33;;;;;;;3.68;100.00;99385.03;5066359;28;20040;-72
2021/03/12 06:05:22;;;;;;;5.17;2.37;;;;;;;3.70;100.00;99375.44;5047633;28;20128;-71
2021/03/12 06:07:51;;;;;;;5.83;2.53;;;;;;;3.72;100.00;99391.97;5030615;28;20429;-71
2021/03/12 06:10:18;;;;;;;6.90;2.43;;;;;;;3.77;100.00;99391.88;5030427;28;20071;-71
2021/03/12 06:12:44;;;;;;;4.57;2.57;;;;;;;3.79;100.00;99397.97;5067180;28;20052;-71
2021/03/12 06:15:11;;;;;;;6.47;3.07;;;;;;;3.88;100.00;99384.78;5031535;28;20091;-72
2021/03/12 06:17:39;;;;;;;6.40;3.30;;;;;;;3.97;100.00;99402.09;5023617;28;20484;-71
2021/03/12 06:20:09;;;;;;;5.47;3.03;;;;;;;4.01;100.00;99401.13;5037342;28;20639;-71
2021/03/12 06:22:45;;;;;;;5.40;2.73;;;;;;;4.01;100.00;99409.84;5037395;28;20041;-71
2021/03/12 06:25:16;;;;;;;6.73;3.10;;;;;;;4.02;100.00;99405.47;5064801;28;20382;-71
2021/03/12 06:27:43;;;;;;;5.40;3.20;;;;;;;4.08;100.00;99414.09;5064124;28;20106;-71
2021/03/12 06:30:11;;;;;;;6.30;2.87;;;;;;;4.06;100.00;99420.25;5057502;28;20037;-71
2021/03/12 06:32:49;;;;;;;7.40;3.30;;;;;;;4.10;100.00;99428.00;5067119;28;20040;-71
2021/03/12 06:35:22;;;;;;;7.70;3.10;;;;;;;4.13;100.00;99429.72;5042317;28;20039;-71
2021/03/12 06:37:49;;;;;;;5.63;2.80;;;;;;;4.21;100.00;99433.09;5043253;28;20041;-72
2021/03/12 06:40:19;;;;;;;12.63;3.60;;;;;;;4.23;100.00;99433.94;5061098;28;20049;-71
2021/03/12 06:43:01;;;;;;;8.70;3.63;;;;;;;4.28;100.00;99439.09;5055444;28;20456;-71
2021/03/12 06:45:28;;;;;;;7.37;3.40;;;;;;;4.30;100.00;99446.03;5038599;28;20564;-71
2021/03/12 06:48:21;;;;;;;6.03;3.80;;;;;;;4.31;100.00;99455.59;5056080;28;20390;-71
2021/03/12 06:50:58;;;;;;;8.00;3.80;;;;;;;4.35;100.00;99454.66;5063951;28;20036;-71
2021/03/12 06:53:51;;;;;;;8.90;4.37;;;;;;;4.39;100.00;99460.72;5045664;28;20045;-72
2021/03/12 06:56:39;;;;;;;5.73;2.87;;;;;;;4.46;100.00;99462.38;5064019;28;20060;-70
2021/03/12 06:59:05;;;;;;;7.22;3.20;;;;;;;4.45;99.69;99463.22;5036448;28;20658;-70
2021/03/12 07:01:31;;;;;;;6.83;3.13;;;;;;;4.56;100.00;99470.94;5060004;28;20037;-70
2021/03/12 07:04:11;;;;;;;8.43;3.60;;;;;;;4.49;99.08;99475.38;5060959;28;20037;-70
2021/03/12 07:06:50;;;;;;;5.00;2.83;;;;;;;4.48;99.59;99477.13;5030356;28;20726;-70
2021/03/12 07:09:17;;;;;;;8.47;3.20;;;;;;;4.48;98.43;99482.38;5044313;28;20051;-70
2021/03/12 07:11:43;;;;;;;6.00;3.27;;;;;;;4.51;99.09;99479.69;5044332;28;21889;-70
2021/03/12 07:14:09;;;;;;;7.13;3.27;;;;;;;4.62;98.18;99473.44;5028739;28;20536;-70
2021/03/12 07:16:54;;;;;;;4.30;2.57;;;;;;;4.87;97.02;99487.00;5063228;28;20032;-70
2021/03/12 07:19:20;;;;;;;5.47;3.60;;;;;;;5.02;94.63;99495.47;5061416;28;20040;-70
2021/03/12 07:21:48;;;;;;;8.00;3.70;;;;;;;5.22;94.19;99499.53;5037409;28;20036;-70
2021/03/12 07:24:18;;;;;;;8.07;3.57;;;;;;;5.23;93.43;99496.88;5041602;28;20513;-70
2021/03/12 07:26:46;;;;;;;7.40;3.83;;;;;;;5.11;93.59;99506.66;5022395;28;20043;-70
2021/03/12 07:29:13;;;;;;;6.47;3.57;;;;;;;5.39;93.55;99502.72;5060259;28;20067;-70
2021/03/12 07:31:41;;;;;;;7.73;3.97;;;;;;;5.88;90.45;99505.22;5039299;28;20048;-70
2021/03/12 07:34:13;;;;;;;6.43;2.87;;;;;;;6.17;88.48;99509.06;5046103;28;20628;-70
2021/03/12 07:36:46;;;;;;;7.40;3.10;;;;;;;6.73;86.09;99514.84;5030345;28;20452;-69
2021/03/12 07:39:17;;;;;;;6.63;2.70;;;;;;;6.53;83.99;99512.66;5046870;28;20036;-69
2021/03/12 07:41:44;;;;;;;8.40;3.10;;;;;;;6.08;85.51;99509.25;5045509;28;20044;-70
2021/03/12 07:44:12;;;;;;;6.07;3.13;;;;;;;6.17;86.38;99504.69;5043104;28;20363;-70
2021/03/12 07:46:39;;;;;;;5.70;2.60;;;;;;;6.41;87.24;99518.19;5041615;28;20044;-70
2021/03/12 07:49:27;;;;;;;5.67;3.37;;;;;;;7.11;83.68;99521.78;5020325;28;20047;-70
2021/03/12 07:51:55;;;;;;;4.83;2.90;;;;;;;6.93;80.78;99532.75;5042805;28;20040;-70
2021/03/12 07:54:40;;;;;;;5.40;3.30;;;;;;;7.07;84.43;99548.19;5066313;23;20048;-68
2021/03/12 07:57:07;;;;;;;6.67;2.50;;;;;;;6.87;82.16;99544.22;5019320;28;20040;-68
2021/03/12 07:59:48;;;;;;;5.43;3.37;;;;;;;6.29;82.78;99552.53;5016285;28;20044;-68
2021/03/12 08:02:16;;;;;;;5.47;3.30;;;;;;;6.19;85.07;99555.34;5049503;28;20029;-67
2021/03/12 08:04:48;;;;;;;4.10;2.63;;;;;;;5.73;85.47;99567.59;5044728;28;20067;-70
2021/03/12 08:07:15;;;;;;;5.53;2.80;;;;;;;5.60;87.29;99559.94;5032367;28;20037;-70
2021/03/12 08:09:43;;;;;;;7.27;3.13;;;;;;;5.62;87.02;99566.00;5039255;28;20040;-70
2021/03/12 08:12:27;;;;;;;6.70;4.23;;;;;;;5.64;86.45;99569.47;5028085;28;20049;-70
2021/03/12 08:15:16;;;;;;;4.80;3.23;;;;;;;5.82;87.31;99580.53;5057488;28;20048;-70
2021/03/12 08:17:57;;;;;;;5.80;3.10;;;;;;;5.71;86.01;99580.69;5026507;28;20414;-71
2021/03/12 08:20:43;;;;;;;5.37;3.00;;;;;;;5.80;85.88;99583.19;5053492;28;20124;-70
2021/03/12 08:23:15;;;;;;;;;;;;;;;5.99;85.65;99586.34;5031611;28;20067;-70
2021/03/12 08:25:44;;;;;;;3.40;2.50;;;;;;;6.24;82.67;99585.88;5052698;28;19929;-67
2021/03/12 08:28:13;;;;;;;5.80;3.47;;;;;;;6.86;80.78;99581.91;5026919;28;20036;-70
2021/03/12 08:30:39;;;;;;;4.20;3.00;;;;;;;7.42;77.27;99577.06;5036620;28;20098;-68
2021/03/12 08:33:07;;;;;;;5.70;3.17;;;;;;;8.53;75.11;99590.75;5047555;28;20044;-68
2021/03/12 08:35:36;;;;;;;4.47;2.60;;;;;;;8.96;70.80;99593.81;5043603;28;20029;-68
2021/03/12 08:38:23;;;;;;;4.63;2.10;;;;;;;8.69;71.24;99585.00;5045700;28;20044;-68
2021/03/12 08:41:02;;;;;;;9.85;3.40;;;;;;;8.06;72.56;99583.25;5041502;28;20067;-68
2021/03/12 08:43:30;;;;;;;5.77;3.70;;;;;;;7.62;74.68;99587.06;5042721;28;20052;-67
2021/03/12 08:45:58;;;;;;;5.53;2.90;;;;;;;7.52;76.32;99607.47;5034924;28;20033;-68
2021/03/12 08:48:30;;;;;;;5.53;2.53;;;;;;;7.37;76.19;99604.34;5044357;28;20032;-67
2021/03/12 08:50:58;;;;;;;5.67;2.57;;;;;;;7.47;76.98;99608.47;5028157;28;20560;-68
2021/03/12 08:53:26;;;;;;;4.47;1.90;;;;;;;7.27;76.69;99622.09;5046928;28;20402;-68
2021/03/12 08:55:55;;;;;;;4.50;2.50;;;;;;;6.89;77.35;99621.19;5043775;28;20051;-67
2021/03/12 08:58:22;;;;;;;6.83;2.70;;;;;;;7.00;76.70;99619.22;5024946;28;20052;-68
2021/03/12 09:00:50;;;;;;;5.87;2.53;;;;;;;7.17;75.78;99618.84;5032261;28;20041;-67
2021/03/12 09:03:30;;;;;;;8.23;4.13;;;;;;;7.25;75.76;99624.78;5046711;28;20048;-68
2021/03/12 09:06:10;;;;;;;4.43;2.57;;;;;;;8.14;72.17;99627.75;5019037;28;20040;-67
2021/03/12 09:08:40;;;;;;;3.87;2.30;;;;;;;8.89;70.62;99629.16;5048586;28;20060;-67
2021/03/12 09:11:08;;;;;;;4.97;2.65;;;;;;;9.21;67.42;99622.03;5049284;28;20036;-68
2021/03/12 09:13:36;;;;;;;3.77;2.37;;;;;;;9.29;65.74;99627.94;5047688;28;20091;-68
2021/03/12 09:16:04;;;;;;;4.45;2.30;;;;;;;8.79;65.96;99637.38;5047503;28;20047;-68
2021/03/12 09:18:36;;;;;;;3.83;2.23;;;;;;;8.66;67.11;99631.59;5027499;28;20040;-68
2021/03/12 09:21:07;;;;;;;5.43;2.40;;;;;;;7.80;68.75;99630.41;5063407;28;20829;-67
2021/03/12 09:23:36;;;;;;;4.80;2.87;;;;;;;7.28;73.38;99629.94;5050200;28;20051;-67
2021/03/12 09:26:04;;;;;;;6.53;3.00;;;;;;;7.16;73.30;99639.88;5045719;28;20497;-68
2021/03/12 09:28:35;;;;;;;4.30;2.50;;;;;;;7.15;76.24;99632.91;5056781;28;20040;-67
2021/03/12 09:31:03;;;;;;;4.37;2.53;;;;;;;7.11;72.79;99641.75;5043198;28;20044;-67
2021/03/12 09:33:40;;;;;;;5.17;2.37;;;;;;;6.75;74.90;99660.91;5052499;28;20035;-67
2021/03/12 09:36:30;;;;;;;6.70;2.50;;;;;;;6.79;82.00;99661.69;5029448;28;20091;-68
2021/03/12 09:39:21;;;;;;;5.57;2.70;;;;;;;7.20;81.36;99659.91;5065480;28;20642;-68
2021/03/12 09:41:52;;;;;;;3.33;2.37;;;;;;;7.34;77.21;99677.09;5049047;28;20603;-68
2021/03/12 09:44:19;;;;;;;4.73;2.73;;;;;;;6.95;75.75;99665.72;5033269;28;20490;-67
2021/03/12 09:46:47;;;;;;;5.07;2.50;;;;;;;6.82;73.57;99669.50;5048726;28;20044;-68
2021/03/12 09:49:37;;;;;;;6.35;2.45;;;;;;;6.68;75.32;99690.78;5044160;28;20075;-68
2021/03/12 09:52:09;;;;;;;4.83;2.33;;;;;;;6.27;74.53;99711.69;5034124;28;20037;-68
2021/03/12 09:54:37;;;;;;;5.93;2.50;;;;;;;5.94;78.10;99708.78;5055003;28;20036;-67
2021/03/12 09:57:04;;;;;;;5.17;2.30;;;;;;;6.21;79.16;99700.41;5031003;28;20068;-67
2021/03/12 09:59:33;;;;;;;3.20;2.23;;;;;;;7.61;75.14;99693.97;5019178;28;20119;-67
2021/03/12 10:02:20;;;;;;;4.63;1.83;;;;;;;9.58;67.31;99685.88;5048463;28;20037;-68
2021/03/12 10:04:56;;;;;;;7.45;2.65;;;;;;;9.20;63.12;99696.75;5032404;28;20029;-67
2021/03/12 10:07:40;;;;;;;5.53;2.47;;;;;;;9.99;64.14;99696.84;5021274;28;20071;-68
2021/03/12 10:10:29;;;;;;;6.80;2.35;;;;;;;9.99;61.71;99707.38;5034215;28;20046;-68
2021/03/12 10:13:00;;;;;;;4.25;2.40;;;;;;;11.34;60.74;99697.28;5027318;28;20063;-68
2021/03/12 10:15:31;;;;;;;5.57;2.30;;;;;;;12.79;53.73;99683.28;5031851;28;20044;-68
2021/03/12 10:17:58;;;;;;;5.65;2.78;;;;;;;13.88;48.71;99693.16;5025169;28;20045;-67
2021/03/12 10:20:27;;;;;;;3.28;2.00;;;;;;;13.75;51.49;99684.91;5041516;28;20513;-67
2021/03/12 10:22:56;;;;;;;4.25;2.53;;;;;;;14.21;52.53;99671.13;5054972;28;20045;-67
2021/03/12 10:25:49;;;;;;;4.72;2.30;;;;;;;14.24;51.06;99679.81;5053019;28;20141;-67
2021/03/12 10:28:20;;;;;;;5.43;2.13;;;;;;;12.34;50.20;99693.16;5048688;28;20118;-67
2021/03/12 10:30:49;;;;;;;3.83;2.28;;;;;;;12.43;53.92;99705.16;5054439;28;20041;-68
2021/03/12 10:33:20;;;;;;;4.20;2.40;;;;;;;10.47;54.49;99701.38;5020082;28;20155;-68
2021/03/12 10:35:54;;;;;;;5.85;2.47;;;;;;;9.91;57.88;99698.84;5032158;28;20061;-68
2021/03/12 10:38:21;;;;;;;5.88;2.55;;;;;;;10.01;59.79;99708.22;5018273;28;20051;-68
2021/03/12 10:40:50;;;;;;;4.70;2.65;;;;;;;10.41;57.29;99705.09;5045852;28;20124;-68
2021/03/12 10:43:24;;;;;;;5.50;2.40;;;;;;;10.79;57.27;99704.66;5036672;28;20215;-68
2021/03/12 10:45:56;;;;;;;4.22;2.20;;;;;;;10.38;55.81;99713.13;5044347;28;20119;-69
2021/03/12 10:48:27;;;;;;;6.00;2.47;;;;;;;9.91;57.67;99709.41;5051576;28;20049;-68
2021/03/12 10:51:03;;;;;;;4.13;2.22;;;;;;;10.48;57.26;99721.59;5056527;28;20456;-68
2021/03/12 10:53:31;;;;;;;4.22;1.92;;;;;;;10.71;53.84;99712.84;5060253;28;20052;-68
2021/03/12 10:56:03;;;;;;;2.85;1.95;;;;;;;10.28;52.47;99705.59;5040284;28;20045;-67
2021/03/12 10:58:32;;;;;;;2.35;1.50;;;;;;;12.05;49.16;99681.16;5046889;28;20042;-68
2021/03/12 11:01:32;;;;;;;2.47;1.55;;;;;;;13.04;44.43;99696.28;5039395;28;20041;-68
2021/03/12 11:04:00;;;;;;;7.38;4.13;;;;;;;12.68;47.01;99712.88;5001113;28;20087;-68
2021/03/12 11:06:32;;;;;;;2.47;1.85;;;;;;;10.36;47.91;99696.50;5020641;28;20670;-67
2021/03/12 11:08:58;;;;;;;3.47;1.80;;;;;;;9.79;52.57;99723.00;5025514;28;20040;-68
2021/03/12 11:11:26;;;;;;;4.38;1.67;;;;;;;9.36;51.89;99739.31;5043827;28;20051;-68
2021/03/12 11:13:52;;;;;;;9.13;5.38;;;;;;;8.89;56.33;99731.03;5035039;28;20072;-67
2021/03/12 11:16:19;;;;;;;5.07;2.67;;;;;;;9.92;56.07;99724.34;5037313;28;20049;-67
2021/03/12 11:18:46;;;;;;;6.25;2.90;;;;;;;10.67;53.17;99717.38;5039341;28;20044;-67
2021/03/12 11:21:13;;;;;;;3.17;2.45;;;;;;;11.04;52.81;99717.81;5029281;28;20071;-68
2021/03/12 11:23:44;;;;;;;5.35;2.67;;;;;;;10.78;52.16;99722.28;5040260;28;20041;-67
2021/03/12 11:26:11;;;;;;;5.15;3.03;;;;;;;10.48;53.35;99724.22;5041827;28;20044;-68
2021/03/12 11:28:38;;;;;;;6.15;2.17;;;;;;;9.80;53.33;99736.16;5042725;28;20067;-67
2021/03/12 11:31:04;;;;;;;6.55;2.85;;;;;;;9.13;55.95;99729.44;5024522;28;20583;-67
2021/03/12 11:33:31;;;;;;;5.93;2.40;;;;;;;8.79;57.30;99721.66;5062490;28;20497;-67
2021/03/12 11:36:00;;;;;;;6.72;3.63;;;;;;;8.87;54.63;99736.34;5062371;28;20048;-68
2021/03/12 11:38:29;;;;;;;6.70;3.78;;;;;;;9.15;54.00;99731.13;5039817;28;20041;-67
2021/03/12 11:40:57;;;;;;;5.78;2.60;;;;;;;9.05;55.30;99726.19;5040281;28;20052;-67
2021/03/12 11:43:24;;;;;;;5.60;3.17;;;;;;;8.90;54.87;99735.38;5028548;28;20048;-68
2021/03/12 11:45:50;;;;;;;5.13;1.90;;;;;;;9.28;53.77;99724.59;5029484;28;20052;-67
2021/03/12 11:48:17;;;;;;;4.60;2.42;;;;;;;11.03;49.79;99714.31;5025363;28;20576;-67
2021/03/12 11:50:44;;;;;;;3.80;1.70;;;;;;;10.96;49.44;99705.75;5063874;28;20444;-68